createdAt,value
2019-03-23T00:00:42.063Z,61.14
2019-03-23T00:01:51.075Z,62.07
2019-03-23T00:02:57.542Z,64.31
2019-03-23T00:04:04.246Z,66.64
2019-03-23T00:05:10.835Z,66.06
2019-03-23T00:06:17.585Z,64.48
2019-03-23T00:07:23.715Z,63.16
2019-03-23T00:08:30.142Z,61.83
2019-03-23T00:09:36.579Z,60.99
2019-03-23T00:10:45.647Z,60.18
2019-03-23T00:11:51.936Z,59.39
2019-03-23T00:12:58.902Z,57.83
2019-03-23T00:14:05.235Z,56.63
2019-03-23T00:15:12.376Z,57.19
2019-03-23T00:16:18.464Z,57.79
2019-03-23T00:17:24.475Z,58.84
2019-03-23T00:18:30.543Z,59.95
2019-03-23T00:19:38.164Z,60.87
2019-03-23T00:20:44.215Z,61.91
2019-03-23T00:21:50.564Z,64.29
2019-03-23T00:22:57.462Z,66.57
2019-03-23T00:24:04.225Z,66.20
2019-03-23T00:25:11.136Z,65.10
2019-03-23T00:26:17.616Z,63.54
2019-03-23T00:27:26.437Z,61.71
2019-03-23T00:28:33.592Z,60.51
2019-03-23T00:29:40.424Z,59.67
2019-03-23T00:30:47.356Z,58.00
2019-03-23T00:31:54.296Z,56.92
2019-03-23T00:33:01.059Z,57.33
2019-03-23T00:34:07.543Z,58.16
2019-03-23T00:35:14.463Z,59.14
2019-03-23T00:36:21.178Z,59.84
2019-03-23T00:37:27.064Z,60.78
2019-03-23T00:38:33.036Z,62.13
2019-03-23T00:39:40.937Z,64.58
2019-03-23T00:40:48.566Z,67.14
2019-03-23T00:41:54.619Z,67.10
2019-03-23T00:43:00.918Z,65.84
2019-03-23T00:44:07.628Z,64.73
2019-03-23T00:45:13.939Z,63.68
2019-03-23T00:46:20.082Z,62.72
2019-03-23T00:47:25.936Z,61.50
2019-03-23T00:48:32.337Z,60.71
2019-03-23T00:49:38.357Z,60.10
2019-03-23T00:50:44.365Z,59.39
2019-03-23T00:51:51.143Z,57.77
2019-03-23T00:53:00.317Z,56.91
2019-03-23T00:54:07.137Z,57.31
2019-03-23T00:55:13.418Z,58.01
2019-03-23T00:56:20.577Z,58.79
2019-03-23T00:57:28.237Z,59.73
2019-03-23T00:58:36.757Z,60.89
2019-03-23T00:59:45.738Z,62.15
2019-03-23T01:00:52.918Z,64.70
2019-03-23T01:01:59.868Z,67.31
2019-03-23T01:03:07.358Z,67.32
2019-03-23T01:04:14.464Z,66.47
2019-03-23T01:05:21.065Z,65.36
2019-03-23T01:06:30.198Z,64.20
2019-03-23T01:07:36.678Z,62.94
2019-03-23T01:08:42.638Z,62.09
2019-03-23T01:09:49.059Z,61.42
2019-03-23T01:10:55.077Z,60.62
2019-03-23T01:12:01.838Z,60.10
2019-03-23T01:13:07.959Z,59.32
2019-03-23T01:14:13.998Z,57.69
2019-03-23T01:15:20.418Z,56.80
2019-03-23T01:16:27.158Z,56.92
2019-03-23T01:17:34.885Z,57.73
2019-03-23T01:18:41.557Z,58.42
2019-03-23T01:19:48.025Z,59.52
2019-03-23T01:20:56.186Z,60.45
2019-03-23T01:22:04.358Z,61.88
2019-03-23T01:23:11.998Z,64.32
2019-03-23T01:24:19.157Z,67.19
2019-03-23T01:25:28.726Z,67.38
2019-03-23T01:26:35.922Z,66.33
2019-03-23T01:27:42.965Z,65.07
2019-03-23T01:28:49.405Z,63.81
2019-03-23T01:29:57.126Z,62.75
2019-03-23T01:31:03.638Z,61.85
2019-03-23T01:32:10.418Z,61.17
2019-03-23T01:33:17.426Z,60.51
2019-03-23T01:34:34.978Z,60.05
2019-03-23T01:35:41.998Z,59.45
2019-03-23T01:36:49.039Z,58.06
2019-03-23T01:37:55.299Z,57.07
2019-03-23T01:39:01.137Z,57.18
2019-03-23T01:40:09.788Z,58.10
2019-03-23T01:41:16.160Z,59.32
2019-03-23T01:42:23.819Z,60.54
2019-03-23T01:43:30.598Z,61.51
2019-03-23T01:44:36.526Z,62.63
2019-03-23T01:45:43.167Z,65.11
2019-03-23T01:46:49.661Z,67.04
2019-03-23T01:47:56.119Z,66.83
2019-03-23T01:49:02.346Z,65.55
2019-03-23T01:50:12.407Z,64.03
2019-03-23T01:51:18.908Z,62.77
2019-03-23T01:52:25.979Z,62.04
2019-03-23T01:53:32.661Z,61.09
2019-03-23T01:54:39.626Z,60.45
2019-03-23T01:55:46.560Z,59.66
2019-03-23T01:56:53.440Z,58.44
2019-03-23T01:58:01.172Z,57.64
2019-03-23T01:59:07.908Z,58.10
2019-03-23T02:00:15.667Z,59.07
2019-03-23T02:01:23.959Z,59.81
2019-03-23T02:02:32.421Z,60.84
2019-03-23T02:03:40.359Z,62.13
2019-03-23T02:04:48.306Z,64.30
2019-03-23T02:05:55.563Z,66.33
2019-03-23T02:07:02.159Z,66.63
2019-03-23T02:08:08.520Z,65.71
2019-03-23T02:09:14.339Z,64.65
2019-03-23T02:10:20.426Z,63.83
2019-03-23T02:11:26.759Z,62.92
2019-03-23T02:12:34.276Z,61.93
2019-03-23T02:13:40.159Z,60.98
2019-03-23T02:14:45.920Z,59.98
2019-03-23T02:15:52.204Z,59.12
2019-03-23T02:16:58.140Z,57.86
2019-03-23T02:18:04.389Z,57.25
2019-03-23T02:19:10.500Z,57.40
2019-03-23T02:20:16.541Z,58.33
2019-03-23T02:21:23.220Z,59.12
2019-03-23T02:22:30.240Z,60.18
2019-03-23T02:23:37.240Z,61.12
2019-03-23T02:24:44.501Z,62.47
2019-03-23T02:25:51.339Z,64.25
2019-03-23T02:26:59.182Z,66.14
2019-03-23T02:28:05.990Z,66.28
2019-03-23T02:29:12.740Z,65.72
2019-03-23T02:30:19.922Z,64.65
2019-03-23T02:31:27.761Z,63.52
2019-03-23T02:32:34.667Z,62.41
2019-03-23T02:33:43.289Z,61.44
2019-03-23T02:34:50.214Z,60.82
2019-03-23T02:35:57.127Z,60.03
2019-03-23T02:37:04.133Z,59.49
2019-03-23T02:38:10.133Z,58.30
2019-03-23T02:39:16.007Z,57.61
2019-03-23T02:40:21.845Z,57.87
2019-03-23T02:41:27.689Z,58.65
2019-03-23T02:42:33.488Z,59.64
2019-03-23T02:43:39.370Z,61.33
2019-03-23T02:44:45.282Z,62.25
2019-03-23T02:45:51.009Z,64.80
2019-03-23T02:46:56.935Z,67.13
2019-03-23T02:48:02.759Z,66.74
2019-03-23T02:49:08.635Z,66.11
2019-03-23T02:50:14.990Z,64.91
2019-03-23T02:51:21.279Z,64.41
2019-03-23T02:52:27.918Z,63.78
2019-03-23T02:53:34.704Z,63.21
2019-03-23T02:54:41.208Z,62.59
2019-03-23T02:55:47.830Z,62.14
2019-03-23T02:56:54.575Z,61.64
2019-03-23T02:58:02.967Z,60.95
2019-03-23T02:59:10.720Z,60.36
2019-03-23T03:00:17.609Z,60.05
2019-03-23T03:01:23.879Z,59.65
2019-03-23T03:02:30.847Z,58.53
2019-03-23T03:03:37.730Z,57.97
2019-03-23T03:04:44.858Z,58.59
2019-03-23T03:05:51.780Z,59.42
2019-03-23T03:06:57.652Z,60.32
2019-03-23T03:08:03.809Z,61.40
2019-03-23T03:09:09.617Z,62.33
2019-03-23T03:10:38.658Z,64.44
2019-03-23T03:11:44.440Z,66.90
2019-03-23T03:12:50.449Z,66.64
2019-03-23T03:13:56.267Z,65.70
2019-03-23T03:15:02.290Z,64.80
2019-03-23T03:16:08.218Z,64.04
2019-03-23T03:17:14.189Z,63.29
2019-03-23T03:18:20.085Z,62.45
2019-03-23T03:19:26.329Z,61.62
2019-03-23T03:20:32.509Z,61.50
2019-03-23T03:21:38.873Z,61.07
2019-03-23T03:22:45.657Z,60.60
2019-03-23T03:23:52.281Z,60.13
2019-03-23T03:24:58.869Z,59.76
2019-03-23T03:26:05.697Z,59.65
2019-03-23T03:27:12.940Z,59.23
2019-03-23T03:28:19.557Z,58.59
2019-03-23T03:29:26.149Z,58.56
2019-03-23T03:30:32.137Z,59.33
2019-03-23T03:31:39.292Z,60.50
2019-03-23T03:32:46.190Z,61.48
2019-03-23T03:33:52.907Z,62.85
2019-03-23T03:34:59.441Z,64.82
2019-03-23T03:36:05.951Z,66.73
2019-03-23T03:37:13.211Z,67.44
2019-03-23T03:38:19.689Z,66.83
2019-03-23T03:39:25.424Z,66.96
2019-03-23T03:40:31.233Z,66.54
2019-03-23T03:41:37.368Z,66.28
2019-03-23T03:42:43.242Z,65.66
2019-03-23T03:43:49.078Z,64.81
2019-03-23T03:44:54.911Z,64.45
2019-03-23T03:46:00.678Z,63.82
2019-03-23T03:47:06.520Z,63.51
2019-03-23T03:48:12.379Z,63.22
2019-03-23T03:49:18.257Z,62.78
2019-03-23T03:50:24.633Z,62.45
2019-03-23T03:51:30.931Z,62.16
2019-03-23T03:52:37.202Z,61.71
2019-03-23T03:53:43.640Z,61.98
2019-03-23T03:54:50.692Z,61.74
2019-03-23T03:55:57.710Z,61.60
2019-03-23T03:57:04.593Z,61.41
2019-03-23T03:58:11.230Z,61.34
2019-03-23T03:59:17.832Z,60.87
2019-03-23T04:00:24.779Z,61.26
2019-03-23T04:01:31.181Z,61.41
2019-03-23T04:02:38.811Z,61.31
2019-03-23T04:03:45.232Z,61.39
2019-03-23T04:04:52.892Z,61.64
2019-03-23T04:06:00.056Z,61.42
2019-03-23T04:07:06.761Z,61.48
2019-03-23T04:08:14.050Z,61.68
2019-03-23T04:09:19.770Z,61.36
2019-03-23T04:10:25.544Z,61.28
2019-03-23T04:11:31.402Z,61.00
2019-03-23T04:12:37.362Z,60.66
2019-03-23T04:13:44.443Z,60.47
2019-03-23T04:14:50.208Z,60.12
2019-03-23T04:15:56.078Z,59.84
2019-03-23T04:17:01.895Z,59.77
2019-03-23T04:18:07.825Z,59.54
2019-03-23T04:19:13.715Z,58.98
2019-03-23T04:20:20.581Z,58.07
2019-03-23T04:21:27.010Z,57.83
2019-03-23T04:22:33.777Z,58.68
2019-03-23T04:23:40.667Z,59.69
2019-03-23T04:24:47.074Z,60.85
2019-03-23T04:25:54.164Z,62.08
2019-03-23T04:27:01.679Z,64.10
2019-03-23T04:28:08.447Z,65.67
2019-03-23T04:29:15.440Z,65.73
2019-03-23T04:30:22.093Z,65.34
2019-03-23T04:31:29.446Z,64.55
2019-03-23T04:32:37.161Z,63.75
2019-03-23T04:33:43.719Z,63.08
2019-03-23T04:34:50.791Z,62.47
2019-03-23T04:35:57.775Z,61.95
2019-03-23T04:37:05.740Z,61.77
2019-03-23T04:38:22.697Z,61.17
2019-03-23T04:39:21.799Z,60.90
2019-03-23T04:40:27.830Z,60.78
2019-03-23T04:41:33.730Z,60.45
2019-03-23T04:42:39.617Z,60.14
2019-03-23T04:43:51.220Z,60.23
2019-03-23T04:44:57.146Z,59.90
2019-03-23T04:46:02.994Z,59.70
2019-03-23T04:47:08.831Z,59.43
2019-03-23T04:48:14.660Z,58.65
2019-03-23T04:49:20.469Z,58.39
2019-03-23T04:50:26.313Z,58.91
2019-03-23T04:51:33.074Z,59.88
2019-03-23T04:52:39.843Z,61.03
2019-03-23T04:53:47.339Z,62.15
2019-03-23T04:54:54.240Z,63.87
2019-03-23T04:56:00.244Z,65.57
2019-03-23T04:57:06.622Z,66.35
2019-03-23T04:58:15.172Z,65.68
2019-03-23T04:59:21.890Z,64.95
2019-03-23T05:00:28.851Z,64.30
2019-03-23T05:01:35.502Z,63.61
2019-03-23T05:02:41.752Z,63.17
2019-03-23T05:03:49.733Z,62.67
2019-03-23T05:04:56.941Z,62.37
2019-03-23T05:06:04.812Z,61.82
2019-03-23T05:07:11.373Z,61.45
2019-03-23T05:08:18.413Z,60.94
2019-03-23T05:09:24.574Z,60.61
2019-03-23T05:10:30.431Z,60.06
2019-03-23T05:11:36.283Z,59.89
2019-03-23T05:12:42.320Z,59.48
2019-03-23T05:13:52.192Z,58.89
2019-03-23T05:14:58.012Z,58.44
2019-03-23T05:16:04.123Z,59.25
2019-03-23T05:17:10.972Z,60.34
2019-03-23T05:18:17.079Z,61.30
2019-03-23T05:19:27.002Z,62.53
2019-03-23T05:20:34.621Z,65.18
2019-03-23T05:21:41.103Z,66.58
2019-03-23T05:22:47.871Z,66.54
2019-03-23T05:23:55.436Z,65.78
2019-03-23T05:25:02.085Z,64.65
2019-03-23T05:26:08.713Z,63.54
2019-03-23T05:27:15.624Z,62.52
2019-03-23T05:28:21.816Z,61.73
2019-03-23T05:29:28.183Z,61.01
2019-03-23T05:30:35.323Z,60.49
2019-03-23T05:31:42.133Z,60.21
2019-03-23T05:32:49.373Z,59.54
2019-03-23T05:33:55.994Z,58.66
2019-03-23T05:35:03.195Z,57.87
2019-03-23T05:36:09.444Z,58.54
2019-03-23T05:37:17.044Z,59.39
2019-03-23T05:38:24.072Z,60.68
2019-03-23T05:39:30.213Z,61.67
2019-03-23T05:40:36.022Z,63.09
2019-03-23T05:41:41.751Z,65.56
2019-03-23T05:42:47.744Z,66.54
2019-03-23T05:43:53.533Z,66.89
2019-03-23T05:44:59.393Z,66.37
2019-03-23T05:46:05.452Z,66.25
2019-03-23T05:47:11.483Z,65.39
2019-03-23T05:48:17.559Z,64.91
2019-03-23T05:49:23.347Z,64.45
2019-03-23T05:50:29.473Z,63.95
2019-03-23T05:51:36.196Z,63.24
2019-03-23T05:52:42.484Z,62.96
2019-03-23T05:53:49.175Z,62.36
2019-03-23T05:54:55.724Z,62.00
2019-03-23T05:56:02.634Z,61.35
2019-03-23T05:57:09.727Z,60.96
2019-03-23T05:58:15.994Z,60.63
2019-03-23T05:59:22.774Z,59.60
2019-03-23T06:00:29.425Z,58.98
2019-03-23T06:01:36.514Z,58.54
2019-03-23T06:02:42.984Z,58.06
2019-03-23T06:03:49.264Z,58.56
2019-03-23T06:05:07.064Z,59.13
2019-03-23T06:06:15.212Z,60.92
2019-03-23T06:07:35.235Z,61.68
2019-03-23T06:08:55.358Z,63.24
2019-03-23T06:10:07.832Z,66.26
2019-03-23T06:11:20.445Z,67.08
2019-03-23T06:12:26.331Z,66.53
2019-03-23T06:13:32.319Z,64.92
2019-03-23T06:14:38.270Z,63.95
2019-03-23T06:15:45.364Z,62.99
2019-03-23T06:16:51.306Z,61.54
2019-03-23T06:17:57.400Z,60.72
2019-03-23T06:19:03.185Z,59.72
2019-03-23T06:20:10.485Z,59.18
2019-03-23T06:21:16.336Z,57.75
2019-03-23T06:22:23.384Z,57.33
2019-03-23T06:23:29.685Z,58.37
2019-03-23T06:24:36.164Z,58.29
2019-03-23T06:25:42.933Z,59.13
2019-03-23T06:26:49.635Z,59.47
2019-03-23T06:27:56.485Z,59.85
2019-03-23T06:29:03.183Z,60.41
2019-03-23T06:30:12.043Z,61.14
2019-03-23T06:31:18.572Z,61.70
2019-03-23T06:32:24.726Z,61.96
2019-03-23T06:33:31.236Z,62.59
2019-03-23T06:34:40.148Z,63.71
2019-03-23T06:35:46.495Z,63.48
2019-03-23T06:36:53.237Z,62.65
2019-03-23T06:37:59.653Z,60.08
2019-03-23T06:39:07.555Z,59.81
2019-03-23T06:40:13.595Z,57.03
2019-03-23T06:41:19.643Z,56.29
2019-03-23T06:42:25.453Z,56.23
2019-03-23T06:43:32.715Z,56.11
2019-03-23T06:44:39.746Z,56.08
2019-03-23T06:45:46.025Z,55.40
2019-03-23T06:46:54.003Z,56.10
2019-03-23T06:48:03.965Z,56.67
2019-03-23T06:49:21.658Z,58.25
2019-03-23T06:50:34.407Z,56.84
2019-03-23T06:51:45.669Z,56.87
2019-03-23T06:53:04.289Z,56.63
2019-03-23T06:54:17.565Z,55.63
2019-03-23T06:55:24.494Z,54.72
2019-03-23T06:56:32.314Z,54.03
2019-03-23T06:57:38.767Z,53.65
2019-03-23T06:58:46.037Z,52.73
2019-03-23T06:59:56.645Z,53.02
2019-03-23T07:01:04.154Z,52.48
2019-03-23T07:02:31.645Z,51.80
2019-03-23T07:03:37.548Z,51.80
2019-03-23T07:04:46.380Z,51.15
2019-03-23T07:05:52.855Z,50.97
2019-03-23T07:06:59.608Z,50.75
2019-03-23T07:08:05.768Z,51.29
2019-03-23T07:09:16.316Z,52.24
2019-03-23T07:10:20.426Z,52.78
2019-03-23T07:11:26.367Z,55.85
2019-03-23T07:12:32.263Z,55.20
2019-03-23T07:13:38.260Z,56.12
2019-03-23T07:14:44.041Z,56.70
2019-03-23T07:15:49.984Z,57.75
2019-03-23T07:16:55.854Z,58.54
2019-03-23T07:18:01.711Z,59.14
2019-03-23T07:19:07.550Z,59.79
2019-03-23T07:20:14.580Z,60.71
2019-03-23T07:21:22.716Z,61.80
2019-03-23T07:22:29.146Z,62.63
2019-03-23T07:23:35.497Z,63.85
2019-03-23T07:25:03.247Z,64.46
2019-03-23T07:26:10.334Z,62.62
2019-03-23T07:27:16.614Z,62.07
2019-03-23T07:28:23.448Z,60.97
2019-03-23T07:29:30.198Z,59.77
2019-03-23T07:30:36.719Z,58.97
2019-03-23T07:31:44.121Z,57.57
2019-03-23T07:32:50.846Z,57.10
2019-03-23T07:33:58.300Z,57.25
2019-03-23T07:35:08.939Z,58.08
2019-03-23T07:36:15.669Z,59.10
2019-03-23T07:37:22.481Z,59.84
2019-03-23T07:38:29.459Z,60.13
2019-03-23T07:39:36.839Z,60.74
2019-03-23T07:40:42.847Z,61.97
2019-03-23T07:41:48.719Z,62.01
2019-03-23T07:42:54.881Z,62.48
2019-03-23T07:44:02.780Z,63.84
2019-03-23T07:45:11.932Z,64.05
2019-03-23T07:46:17.839Z,63.98
2019-03-23T07:47:23.880Z,63.00
2019-03-23T07:48:30.116Z,61.73
2019-03-23T07:49:36.210Z,60.82
2019-03-23T07:50:45.478Z,59.54
2019-03-23T07:51:51.460Z,58.99
2019-03-23T07:52:57.278Z,57.30
2019-03-23T07:54:05.798Z,56.35
2019-03-23T07:55:17.695Z,56.85
2019-03-23T07:56:24.757Z,57.46
2019-03-23T07:57:33.713Z,58.01
2019-03-23T07:58:39.939Z,58.86
2019-03-23T07:59:45.877Z,59.76
2019-03-23T08:00:53.077Z,60.20
2019-03-23T08:01:59.660Z,60.13
2019-03-23T08:03:06.360Z,61.36
2019-03-23T08:04:13.627Z,61.47
2019-03-23T08:05:20.230Z,62.38
2019-03-23T08:06:27.057Z,63.22
2019-03-23T08:07:33.897Z,63.71
2019-03-23T08:08:40.638Z,63.05
2019-03-23T08:09:47.548Z,61.44
2019-03-23T08:10:53.420Z,60.00
2019-03-23T08:12:01.260Z,59.41
2019-03-23T08:13:07.844Z,58.02
2019-03-23T08:14:13.981Z,57.51
2019-03-23T08:15:20.208Z,57.57
2019-03-23T08:16:26.397Z,58.06
2019-03-23T08:17:33.953Z,58.92
2019-03-23T08:18:39.871Z,59.71
2019-03-23T08:19:45.611Z,60.06
2019-03-23T08:20:51.850Z,60.35
2019-03-23T08:21:58.310Z,61.55
2019-03-23T08:23:04.308Z,61.29
2019-03-23T08:24:11.574Z,62.77
2019-03-23T08:26:04.272Z,64.25
2019-03-23T08:27:11.641Z,63.30
2019-03-23T08:28:20.452Z,61.62
2019-03-23T08:29:27.547Z,59.82
2019-03-23T08:30:34.442Z,58.04
2019-03-23T08:31:41.230Z,57.85
2019-03-23T08:32:52.987Z,57.58
2019-03-23T08:34:20.207Z,57.60
2019-03-23T08:35:27.262Z,58.67
2019-03-23T08:36:33.718Z,59.01
2019-03-23T08:37:41.101Z,59.98
2019-03-23T08:38:48.259Z,60.69
2019-03-23T08:39:54.891Z,61.87
2019-03-23T08:41:00.711Z,61.85
2019-03-23T08:42:06.841Z,62.37
2019-03-23T08:43:14.771Z,63.09
2019-03-23T08:44:21.031Z,63.83
2019-03-23T08:45:27.242Z,62.86
2019-03-23T08:46:33.501Z,61.69
2019-03-23T08:47:41.342Z,60.31
2019-03-23T08:48:48.751Z,58.09
2019-03-23T08:49:54.843Z,57.20
2019-03-23T08:51:01.804Z,56.52
2019-03-23T08:52:07.948Z,56.65
2019-03-23T08:53:13.911Z,56.90
2019-03-23T08:54:20.826Z,57.34
2019-03-23T08:55:27.512Z,58.33
2019-03-23T08:56:34.133Z,58.83
2019-03-23T08:57:41.478Z,59.21
2019-03-23T08:58:48.879Z,59.89
2019-03-23T08:59:57.233Z,60.09
2019-03-23T09:01:03.731Z,60.91
2019-03-23T09:02:27.032Z,61.22
2019-03-23T09:03:34.607Z,61.67
2019-03-23T09:04:41.188Z,62.02
2019-03-23T09:05:51.334Z,62.89
2019-03-23T09:06:57.322Z,64.25
2019-03-23T09:08:04.179Z,63.77
2019-03-23T09:09:11.112Z,62.79
2019-03-23T09:10:17.298Z,61.22
2019-03-23T09:11:27.033Z,59.85
2019-03-23T09:12:33.972Z,57.53
2019-03-23T09:13:40.986Z,56.85
2019-03-23T09:14:49.161Z,56.71
2019-03-23T09:15:55.792Z,57.11
2019-03-23T09:17:03.533Z,57.92
2019-03-23T09:18:10.494Z,58.12
2019-03-23T09:19:17.192Z,58.70
2019-03-23T09:20:23.809Z,59.48
2019-03-23T09:21:30.452Z,59.78
2019-03-23T09:22:37.832Z,61.07
2019-03-23T09:23:45.040Z,60.93
2019-03-23T09:24:56.981Z,61.18
2019-03-23T09:26:01.020Z,62.23
2019-03-23T09:27:08.433Z,62.77
2019-03-23T09:28:15.373Z,62.92
2019-03-23T09:29:22.164Z,64.06
2019-03-23T09:30:29.089Z,62.71
2019-03-23T09:31:35.693Z,61.06
2019-03-23T09:32:43.459Z,59.04
2019-03-23T09:33:51.001Z,57.10
2019-03-23T09:34:58.213Z,56.13
2019-03-23T09:36:04.992Z,56.32
2019-03-23T09:37:13.344Z,56.72
2019-03-23T09:38:20.260Z,57.37
2019-03-23T09:39:27.651Z,57.65
2019-03-23T09:40:34.852Z,58.06
2019-03-23T09:41:41.694Z,58.33
2019-03-23T09:42:49.120Z,58.71
2019-03-23T09:43:56.412Z,59.13
2019-03-23T09:45:03.744Z,59.42
2019-03-23T09:46:12.614Z,59.73
2019-03-23T09:47:20.641Z,60.31
2019-03-23T09:48:27.976Z,60.02
2019-03-23T09:49:35.039Z,61.61
2019-03-23T09:50:41.800Z,61.04
2019-03-23T09:51:48.701Z,61.70
2019-03-23T09:52:55.973Z,62.20
2019-03-23T09:54:03.780Z,62.19
2019-03-23T09:55:33.020Z,62.16
2019-03-23T09:56:39.180Z,62.30
2019-03-23T09:57:45.974Z,62.19
2019-03-23T09:58:53.753Z,62.46
2019-03-23T10:00:00.081Z,63.45
2019-03-23T10:01:08.030Z,63.78
2019-03-23T10:02:14.812Z,62.68
2019-03-23T10:03:21.430Z,60.08
2019-03-23T10:04:28.432Z,58.87
2019-03-23T10:05:35.631Z,57.06
2019-03-23T10:06:42.130Z,56.17
2019-03-23T10:07:49.166Z,56.59
2019-03-23T10:08:55.871Z,56.60
2019-03-23T10:10:02.410Z,56.35
2019-03-23T10:11:09.270Z,57.08
2019-03-23T10:12:15.983Z,57.41
2019-03-23T10:13:23.062Z,58.48
2019-03-23T10:14:29.905Z,58.01
2019-03-23T10:15:37.110Z,58.02
2019-03-23T10:16:43.790Z,58.38
2019-03-23T10:17:51.023Z,59.07
2019-03-23T10:18:58.731Z,59.05
2019-03-23T10:20:07.550Z,59.26
2019-03-23T10:21:15.783Z,58.96
2019-03-23T10:22:23.610Z,59.65
2019-03-23T10:23:31.223Z,60.01
2019-03-23T10:24:40.043Z,60.05
2019-03-23T10:25:47.283Z,60.45
2019-03-23T10:26:53.563Z,60.49
2019-03-23T10:28:00.350Z,61.18
2019-03-23T10:29:07.150Z,60.30
2019-03-23T10:30:13.298Z,60.58
2019-03-23T10:31:20.303Z,61.24
2019-03-23T10:32:27.705Z,61.30
2019-03-23T10:33:35.763Z,60.83
2019-03-23T10:34:42.877Z,60.60
2019-03-23T10:35:49.543Z,60.58
2019-03-23T10:36:56.311Z,61.39
2019-03-23T10:38:03.195Z,60.93
2019-03-23T10:39:10.287Z,61.54
2019-03-23T10:40:18.270Z,60.96
2019-03-23T10:41:25.514Z,60.97
2019-03-23T10:42:33.770Z,61.00
2019-03-23T10:43:40.190Z,60.71
2019-03-23T10:44:48.071Z,60.99
2019-03-23T10:45:55.494Z,60.63
2019-03-23T10:47:01.752Z,60.76
2019-03-23T10:48:09.471Z,61.34
2019-03-23T10:49:16.785Z,61.13
2019-03-23T10:50:23.491Z,61.56
2019-03-23T10:51:30.925Z,61.75
2019-03-23T10:52:37.825Z,61.73
2019-03-23T10:53:44.060Z,61.94
2019-03-23T10:54:51.191Z,60.81
2019-03-23T10:55:59.071Z,60.56
2019-03-23T10:57:05.094Z,61.67
2019-03-23T10:58:12.153Z,61.08
2019-03-23T10:59:19.624Z,61.22
2019-03-23T11:00:26.044Z,60.99
2019-03-23T11:01:33.273Z,61.37
2019-03-23T11:02:40.510Z,61.27
2019-03-23T11:03:46.925Z,61.42
2019-03-23T11:04:54.134Z,61.81
2019-03-23T11:06:01.185Z,60.94
2019-03-23T11:07:07.394Z,60.82
2019-03-23T11:08:35.812Z,61.99
2019-03-23T11:09:42.351Z,61.99
2019-03-23T11:10:49.188Z,61.91
2019-03-23T11:11:56.401Z,59.71
2019-03-23T11:13:03.346Z,57.99
2019-03-23T11:14:10.385Z,56.48
2019-03-23T11:15:19.032Z,56.17
2019-03-23T11:16:25.385Z,56.11
2019-03-23T11:17:32.791Z,56.42
2019-03-23T11:18:39.832Z,56.73
2019-03-23T11:19:45.752Z,56.72
2019-03-23T11:20:52.035Z,57.37
2019-03-23T11:21:59.014Z,57.36
2019-03-23T11:23:06.006Z,57.73
2019-03-23T11:24:11.905Z,58.39
2019-03-23T11:25:19.345Z,57.78
2019-03-23T11:26:28.128Z,58.76
2019-03-23T11:27:34.593Z,58.71
2019-03-23T11:28:41.165Z,58.75
2019-03-23T11:29:48.347Z,58.94
2019-03-23T11:30:55.525Z,58.36
2019-03-23T11:32:03.106Z,58.70
2019-03-23T11:33:09.940Z,59.85
2019-03-23T11:34:18.280Z,59.20
2019-03-23T11:35:25.716Z,59.93
2019-03-23T11:36:34.212Z,59.81
2019-03-23T11:37:40.933Z,59.95
2019-03-23T11:38:47.927Z,59.87
2019-03-23T11:39:56.885Z,59.44
2019-03-23T11:41:03.333Z,59.59
2019-03-23T11:42:11.833Z,59.26
2019-03-23T11:43:19.975Z,59.43
2019-03-23T11:44:26.286Z,59.30
2019-03-23T11:45:33.407Z,59.22
2019-03-23T11:46:41.436Z,59.77
2019-03-23T11:47:47.813Z,59.50
2019-03-23T11:48:55.476Z,59.82
2019-03-23T11:50:02.652Z,59.45
2019-03-23T11:51:09.649Z,59.43
2019-03-23T11:52:18.305Z,59.59
2019-03-23T11:53:25.922Z,59.98
2019-03-23T11:54:34.110Z,59.58
2019-03-23T11:55:43.055Z,60.29
2019-03-23T11:56:49.772Z,59.51
2019-03-23T11:57:55.854Z,59.64
2019-03-23T11:59:02.053Z,59.38
2019-03-23T12:00:12.672Z,59.66
2019-03-23T12:01:19.707Z,59.59
2019-03-23T12:02:27.055Z,60.11
2019-03-23T12:03:34.852Z,59.91
2019-03-23T12:04:41.585Z,60.31
2019-03-23T12:05:50.633Z,59.37
2019-03-23T12:06:58.935Z,58.82
2019-03-23T12:08:05.015Z,59.01
2019-03-23T12:09:11.620Z,59.55
2019-03-23T12:10:18.735Z,59.77
2019-03-23T12:11:25.335Z,59.60
2019-03-23T12:12:31.863Z,59.44
2019-03-23T12:13:39.495Z,59.35
2019-03-23T12:14:45.845Z,58.99
2019-03-23T12:15:53.063Z,59.79
2019-03-23T12:17:00.695Z,59.33
2019-03-23T12:18:08.796Z,59.55
2019-03-23T12:19:15.675Z,58.91
2019-03-23T12:20:22.895Z,58.95
2019-03-23T12:21:29.436Z,59.23
2019-03-23T12:22:36.343Z,58.60
2019-03-23T12:23:43.423Z,58.85
2019-03-23T12:24:51.736Z,58.60
2019-03-23T12:25:58.963Z,59.17
2019-03-23T12:27:07.544Z,58.64
2019-03-23T12:28:14.165Z,58.80
2019-03-23T12:29:20.896Z,57.95
2019-03-23T12:30:28.088Z,59.24
2019-03-23T12:31:33.996Z,59.17
2019-03-23T12:32:40.383Z,58.64
2019-03-23T12:33:47.503Z,58.62
2019-03-23T12:34:54.237Z,58.30
2019-03-23T12:36:01.356Z,57.96
2019-03-23T12:37:08.503Z,58.36
2019-03-23T12:38:14.751Z,57.93
2019-03-23T12:39:21.425Z,57.87
2019-03-23T12:40:28.576Z,58.34
2019-03-23T12:41:35.090Z,58.25
2019-03-23T12:42:42.143Z,57.45
2019-03-23T12:43:48.879Z,57.57
2019-03-23T12:44:55.336Z,57.30
2019-03-23T12:46:01.751Z,57.62
2019-03-23T12:47:08.416Z,58.20
2019-03-23T12:48:14.317Z,57.58
2019-03-23T12:49:20.824Z,57.90
2019-03-23T12:50:28.356Z,58.00
2019-03-23T12:51:34.516Z,57.28
2019-03-23T12:52:41.366Z,57.99
2019-03-23T12:53:48.645Z,58.00
2019-03-23T12:54:55.387Z,57.83
2019-03-23T12:56:02.384Z,57.22
2019-03-23T12:57:09.076Z,58.18
2019-03-23T12:58:16.626Z,58.02
2019-03-23T12:59:23.905Z,58.41
2019-03-23T13:00:30.963Z,57.77
2019-03-23T13:01:37.403Z,57.72
2019-03-23T13:02:45.638Z,57.54
2019-03-23T13:03:52.716Z,57.82
2019-03-23T13:04:58.923Z,57.65
2019-03-23T13:06:05.857Z,57.48
2019-03-23T13:07:13.904Z,57.26
2019-03-23T13:08:20.236Z,57.63
2019-03-23T13:09:27.484Z,57.91
2019-03-23T13:10:33.985Z,57.31
2019-03-23T13:11:40.316Z,58.01
2019-03-23T13:12:47.183Z,57.82
2019-03-23T13:13:55.457Z,57.71
2019-03-23T13:15:12.543Z,57.38
2019-03-23T13:16:19.204Z,57.27
2019-03-23T13:17:26.157Z,56.79
2019-03-23T13:18:32.425Z,56.89
2019-03-23T13:19:45.569Z,56.89
2019-03-23T13:20:51.737Z,55.96
2019-03-23T13:21:57.817Z,55.67
2019-03-23T13:23:05.066Z,55.89
2019-03-23T13:24:11.657Z,55.75
2019-03-23T13:25:19.419Z,55.40
2019-03-23T13:26:28.277Z,55.68
2019-03-23T13:27:35.037Z,55.62
2019-03-23T13:28:42.217Z,55.92
2019-03-23T13:29:49.604Z,55.48
2019-03-23T13:30:55.858Z,55.48
2019-03-23T13:32:02.605Z,55.66
2019-03-23T13:33:08.990Z,55.74
2019-03-23T13:34:15.298Z,55.47
2019-03-23T13:35:21.978Z,55.65
2019-03-23T13:36:28.827Z,54.98
2019-03-23T13:37:35.667Z,54.40
2019-03-23T13:38:43.407Z,55.08
2019-03-23T13:39:57.117Z,54.82
2019-03-23T13:41:24.226Z,55.27
2019-03-23T13:42:31.487Z,54.62
2019-03-23T13:43:40.044Z,55.01
2019-03-23T13:44:45.895Z,54.63
2019-03-23T13:45:53.128Z,55.24
2019-03-23T13:47:00.847Z,54.50
2019-03-23T13:48:06.783Z,54.42
2019-03-23T13:49:13.894Z,54.12
2019-03-23T13:50:32.947Z,53.99
2019-03-23T13:51:40.008Z,53.85
2019-03-23T13:52:48.334Z,53.80
2019-03-23T13:53:54.687Z,53.62
2019-03-23T13:55:00.776Z,53.24
2019-03-23T13:56:07.829Z,53.50
2019-03-23T13:57:16.807Z,53.39
2019-03-23T13:58:23.348Z,53.08
2019-03-23T13:59:31.828Z,53.14
2019-03-23T14:00:38.847Z,52.41
2019-03-23T14:01:46.054Z,52.47
2019-03-23T14:02:54.014Z,52.52
2019-03-23T14:04:00.895Z,52.76
2019-03-23T14:05:16.144Z,52.59
2019-03-23T14:06:20.294Z,53.11
2019-03-23T14:07:27.059Z,52.90
2019-03-23T14:08:34.328Z,52.38
2019-03-23T14:09:41.707Z,52.46
2019-03-23T14:10:49.213Z,52.08
2019-03-23T14:11:55.847Z,52.15
2019-03-23T14:13:03.368Z,51.91
2019-03-23T14:14:10.407Z,52.20
2019-03-23T14:15:17.596Z,51.53
2019-03-23T14:16:26.571Z,51.85
2019-03-23T14:17:33.388Z,52.16
2019-03-23T14:18:40.168Z,51.59
2019-03-23T14:19:50.099Z,51.57
2019-03-23T14:20:58.095Z,51.57
2019-03-23T14:22:06.375Z,52.03
2019-03-23T14:23:12.788Z,51.86
2019-03-23T14:24:21.416Z,51.54
2019-03-23T14:25:28.287Z,51.34
2019-03-23T14:26:34.848Z,51.31
2019-03-23T14:27:42.815Z,51.50